Time;durP1;ratioP1;P1;durP2;ratioP2;P2;SDS_P1;SDS_P2;PMS_P1;PMS_P2;Temp;Humidity;BMP_temperature;BMP_pressure;BME280_temperature;BME280_humidity;BME280_pressure;Samples;Min_cycle;Max_cycle;Signal;HPM_P1;HPM_P2
2021/03/25 00:00:46;;;;;;;;;;;23.20;34.70;;;;;;1571811;74;752;-58
2021/03/25 00:02:48;;;;;;;;;;;23.20;34.80;;;;;;1570601;74;1246;-60
2021/03/25 00:04:49;;;;;;;;;;;23.20;34.80;;;;;;1554312;75;1925;-57
2021/03/25 00:06:52;;;;;;;;;;;23.20;34.80;;;;;;1581131;74;760;-57
2021/03/25 00:08:54;;;;;;;;;;;23.20;34.80;;;;;;1581996;74;759;-58
2021/03/25 00:10:56;;;;;;;;;;;23.20;34.80;;;;;;1584640;74;935;-59
2021/03/25 00:12:58;;;;;;;;;;;23.10;34.90;;;;;;1579472;74;1177;-58
2021/03/25 00:15:00;;;;;;;;;;;23.20;35.00;;;;;;1576981;74;786;-58
2021/03/25 00:17:02;;;;;;;;;;;23.10;35.00;;;;;;1569719;74;695;-57
2021/03/25 00:19:05;;;;;;;;;;;23.10;35.10;;;;;;1581964;74;628;-58
2021/03/25 00:21:08;;;;;;;;;;;23.10;35.20;;;;;;1572691;74;760;-57
2021/03/25 00:23:10;;;;;;;;;;;23.10;35.20;;;;;;1584548;74;1935;-55
2021/03/25 00:25:13;;;;;;;;;;;23.10;35.20;;;;;;1582772;74;685;-60
2021/03/25 00:27:15;;;;;;;;;;;23.10;35.50;;;;;;1579123;74;996;-54
2021/03/25 00:29:17;;;;;;;;;;;23.00;35.50;;;;;;1584695;74;623;-58
2021/03/25 00:31:19;;;;;;;;;;;22.90;35.70;;;;;;1577265;74;758;-57
2021/03/25 00:33:21;;;;;;;;;;;23.00;35.70;;;;;;1584097;74;1129;-55
2021/03/25 00:35:23;;;;;;;;;;;23.00;35.50;;;;;;1584156;74;810;-55
2021/03/25 00:37:25;;;;;;;;;;;23.10;35.40;;;;;;1581327;74;746;-58
2021/03/25 00:39:26;;;;;;;;;;;23.10;35.30;;;;;;1579088;74;776;-58
2021/03/25 00:41:28;;;;;;;;;;;23.10;35.30;;;;;;1574489;74;770;-57
2021/03/25 00:43:30;;;;;;;;;;;23.10;35.30;;;;;;1582671;74;1915;-59
2021/03/25 00:45:36;;;;;;;;;;;23.10;35.30;;;;;;1583952;74;798;-59
2021/03/25 00:47:38;;;;;;;;;;;23.00;35.20;;;;;;1579377;74;758;-57
2021/03/25 00:49:40;;;;;;;;;;;23.10;35.30;;;;;;1577539;74;662;-55
2021/03/25 00:51:42;;;;;;;;;;;23.10;35.40;;;;;;1580181;74;1156;-58
2021/03/25 00:53:44;;;;;;;;;;;23.00;35.30;;;;;;1580263;74;761;-55
2021/03/25 00:55:46;;;;;;;;;;;23.00;35.20;;;;;;1582819;74;759;-59
2021/03/25 00:57:48;;;;;;;;;;;23.00;35.30;;;;;;1585706;74;753;-58
2021/03/25 00:59:49;;;;;;;;;;;23.10;35.40;;;;;;1586773;74;814;-60
2021/03/25 01:01:51;;;;;;;;;;;23.10;35.40;;;;;;1571489;74;1181;-57
2021/03/25 01:03:53;;;;;;;;;;;23.10;35.30;;;;;;1572056;74;1938;-60
2021/03/25 01:05:55;;;;;;;;;;;23.10;35.40;;;;;;1572058;75;799;-59
2021/03/25 01:07:57;;;;;;;;;;;23.10;35.30;;;;;;1563053;74;747;-58
2021/03/25 01:09:59;;;;;;;;;;;23.20;35.30;;;;;;1584531;74;761;-57
2021/03/25 01:12:01;;;;;;;;;;;23.20;35.20;;;;;;1583528;74;1172;-56
2021/03/25 01:14:04;;;;;;;;;;;23.20;35.20;;;;;;1582672;74;790;-57
2021/03/25 01:16:06;;;;;;;;;;;23.20;35.20;;;;;;1581995;74;733;-59
2021/03/25 01:18:08;;;;;;;;;;;23.20;35.10;;;;;;1583845;74;752;-59
2021/03/25 01:20:12;;;;;;;;;;;23.10;35.20;;;;;;1584182;74;761;-58
2021/03/25 01:22:14;;;;;;;;;;;23.10;35.50;;;;;;1583569;74;1176;-58
2021/03/25 01:24:16;;;;;;;;;;;23.00;35.50;;;;;;1578823;74;1934;-56
2021/03/25 01:26:18;;;;;;;;;;;23.00;35.70;;;;;;1562193;74;777;-56
2021/03/25 01:28:20;;;;;;;;;;;22.90;35.80;;;;;;1576328;74;759;-59
2021/03/25 01:30:22;;;;;;;;;;;23.00;35.80;;;;;;1578726;74;809;-60
2021/03/25 01:32:24;;;;;;;;;;;23.10;35.80;;;;;;1582300;74;1083;-58
2021/03/25 01:34:26;;;;;;;;;;;23.00;35.70;;;;;;1576577;74;767;-60
2021/03/25 01:36:28;;;;;;;;;;;23.10;35.80;;;;;;1579447;74;805;-60
2021/03/25 01:38:29;;;;;;;;;;;23.10;35.80;;;;;;1576832;75;918;-54
2021/03/25 01:40:35;;;;;;;;;;;23.10;35.80;;;;;;1577812;74;810;-59
2021/03/25 01:42:37;;;;;;;;;;;23.10;35.80;;;;;;1583005;74;1232;-60
2021/03/25 01:44:39;;;;;;;;;;;23.20;35.70;;;;;;1580440;74;1945;-57
2021/03/25 01:46:41;;;;;;;;;;;23.20;35.70;;;;;;1577956;74;818;-58
2021/03/25 01:48:45;;;;;;;;;;;23.20;35.70;;;;;;1580351;75;743;-58
2021/03/25 01:50:47;;;;;;;;;;;23.20;35.70;;;;;;1575186;74;780;-59
2021/03/25 01:52:50;;;;;;;;;;;23.10;35.70;;;;;;1574322;74;1237;-59
2021/03/25 01:55:00;;;;;;;;;;;23.20;35.70;;;;;;1572016;74;816;-56
2021/03/25 01:57:20;;;;;;;;;;;23.20;35.60;;;;;;1580826;74;981;-56
2021/03/25 01:59:32;;;;;;;;;;;23.10;35.60;;;;;;1575738;74;763;-55
2021/03/25 02:01:45;;;;;;;;;;;23.20;35.50;;;;;;1570469;74;1628;-57
2021/03/25 02:03:48;;;;;;;;;;;23.10;35.60;;;;;;1576354;74;1939;-54
2021/03/25 02:06:01;;;;;;;;;;;23.10;35.60;;;;;;1576934;74;998;-55
2021/03/25 02:08:04;;;;;;;;;;;23.10;35.60;;;;;;1576796;74;1469;-59
2021/03/25 02:10:16;;;;;;;;;;;23.10;35.50;;;;;;1569407;74;1572;-58
2021/03/25 02:12:25;;;;;;;;;;;23.20;35.50;;;;;;1571248;74;1441;-55
2021/03/25 02:14:31;;;;;;;;;;;23.20;35.40;;;;;;1567980;74;755;-56
2021/03/25 02:16:41;;;;;;;;;;;23.20;35.30;;;;;;1571893;74;1676;-58
2021/03/25 02:18:47;;;;;;;;;;;23.20;35.50;;;;;;1574847;74;613;-57
2021/03/25 02:21:09;;;;;;;;;;;23.30;35.60;;;;;;1569904;74;1145;-57
2021/03/25 02:23:12;;;;;;;;;;;23.20;35.70;;;;;;1571373;74;1178;-60
2021/03/25 02:25:16;;;;;;;;;;;23.20;35.60;;;;;;1573344;74;1934;-60
2021/03/25 02:27:36;;;;;;;;;;;23.20;35.60;;;;;;1570186;74;822;-54
2021/03/25 02:29:55;;;;;;;;;;;23.10;35.70;;;;;;1574308;74;799;-55
2021/03/25 02:31:58;;;;;;;;;;;23.20;35.70;;;;;;1572807;74;1162;-60
2021/03/25 02:34:00;;;;;;;;;;;23.10;35.70;;;;;;1570888;74;779;-56
2021/03/25 02:36:03;;;;;;;;;;;23.20;35.60;;;;;;1570427;74;757;-58
2021/03/25 02:38:06;;;;;;;;;;;23.20;35.50;;;;;;1567462;74;712;-57
2021/03/25 02:40:09;;;;;;;;;;;23.20;35.50;;;;;;1575346;74;745;-57
2021/03/25 02:42:12;;;;;;;;;;;23.20;35.50;;;;;;1575512;74;1239;-59
2021/03/25 02:44:15;;;;;;;;;;;23.30;35.50;;;;;;1575085;74;1928;-58
2021/03/25 02:46:19;;;;;;;;;;;23.20;35.50;;;;;;1571782;74;740;-60
2021/03/25 02:48:21;;;;;;;;;;;23.20;35.50;;;;;;1577745;74;775;-55
2021/03/25 02:50:30;;;;;;;;;;;23.20;35.50;;;;;;1580144;74;754;-57
2021/03/25 02:52:34;;;;;;;;;;;23.20;35.40;;;;;;1568888;74;1396;-57
2021/03/25 02:54:35;;;;;;;;;;;23.30;35.60;;;;;;1570366;75;1474;-57
2021/03/25 02:56:45;;;;;;;;;;;23.30;35.50;;;;;;1576928;75;717;-59
2021/03/25 02:58:48;;;;;;;;;;;23.20;35.50;;;;;;1573650;75;734;-59
2021/03/25 03:00:51;;;;;;;;;;;23.20;35.60;;;;;;1580013;74;694;-60
2021/03/25 03:02:55;;;;;;;;;;;23.20;35.60;;;;;;1576016;74;1158;-55
2021/03/25 03:04:58;;;;;;;;;;;23.20;35.70;;;;;;1578664;74;1942;-58
2021/03/25 03:07:11;;;;;;;;;;;23.20;35.60;;;;;;1571259;74;1824;-59
2021/03/25 03:09:14;;;;;;;;;;;23.20;35.70;;;;;;1574498;74;945;-58
2021/03/25 03:11:26;;;;;;;;;;;23.20;35.60;;;;;;1570543;74;697;-58
2021/03/25 03:13:29;;;;;;;;;;;23.20;35.70;;;;;;1565342;74;1163;-57
2021/03/25 03:15:32;;;;;;;;;;;23.30;35.80;;;;;;1569583;75;682;-56
2021/03/25 03:17:39;;;;;;;;;;;23.20;35.60;;;;;;1580982;74;694;-56
2021/03/25 03:19:42;;;;;;;;;;;23.20;35.50;;;;;;1568152;74;738;-57
2021/03/25 03:21:48;;;;;;;;;;;23.20;35.70;;;;;;1572696;74;1492;-58
2021/03/25 03:23:50;;;;;;;;;;;23.20;35.70;;;;;;1575756;74;737;-60
2021/03/25 03:25:53;;;;;;;;;;;23.20;35.80;;;;;;1578262;75;1941;-58
2021/03/25 03:27:56;;;;;;;;;;;23.10;35.80;;;;;;1572624;74;782;-58
2021/03/25 03:29:58;;;;;;;;;;;23.10;35.90;;;;;;1579570;74;1053;-57
2021/03/25 03:32:17;;;;;;;;;;;23.10;35.90;;;;;;1580403;74;1168;-58
2021/03/25 03:34:20;;;;;;;;;;;23.00;35.80;;;;;;1572654;75;698;-57
2021/03/25 03:36:22;;;;;;;;;;;23.00;35.90;;;;;;1583117;74;887;-57
2021/03/25 03:38:26;;;;;;;;;;;23.00;36.00;;;;;;1580369;75;678;-58
2021/03/25 03:40:29;;;;;;;;;;;23.00;36.00;;;;;;1582257;70;215304;-60
2021/03/25 03:42:31;;;;;;;;;;;23.00;36.10;;;;;;1630063;71;771;-61
2021/03/25 03:44:34;;;;;;;;;;;22.90;36.20;;;;;;1629628;71;1947;-62
2021/03/25 03:46:36;;;;;;;;;;;23.00;36.30;;;;;;1630318;71;752;-62
2021/03/25 03:48:45;;;;;;;;;;;22.90;36.20;;;;;;1626647;71;792;-61
2021/03/25 03:50:48;;;;;;;;;;;22.90;36.30;;;;;;1621816;72;1244;-61
2021/03/25 03:52:50;;;;;;;;;;;22.80;36.30;;;;;;1616349;72;952;-64
2021/03/25 03:54:52;;;;;;;;;;;22.90;36.70;;;;;;1619187;72;765;-61
2021/03/25 03:57:12;;;;;;;;;;;22.80;36.40;;;;;;1614971;72;791;-62
2021/03/25 03:59:22;;;;;;;;;;;22.80;36.40;;;;;;1621847;72;723;-62
2021/03/25 04:01:25;;;;;;;;;;;22.80;36.50;;;;;;1618824;72;1094;-62
2021/03/25 04:03:38;;;;;;;;;;;22.80;36.70;;;;;;1614251;72;743;-63
2021/03/25 04:05:40;;;;;;;;;;;22.80;36.80;;;;;;1605395;72;1937;-63
2021/03/25 04:07:43;;;;;;;;;;;22.80;36.80;;;;;;1607452;73;804;-62
2021/03/25 04:09:58;;;;;;;;;;;22.80;36.80;;;;;;1612819;72;1189;-62
2021/03/25 04:12:05;;;;;;;;;;;22.80;36.90;;;;;;1604954;72;1177;-62
2021/03/25 04:14:17;;;;;;;;;;;22.80;36.90;;;;;;1604242;72;798;-62
2021/03/25 04:16:23;;;;;;;;;;;22.80;37.00;;;;;;1581513;73;1148;-61
2021/03/25 04:18:27;;;;;;;;;;;22.80;36.90;;;;;;1598069;73;682;-63
2021/03/25 04:20:28;;;;;;;;;;;22.80;36.80;;;;;;1595871;72;1464;-61
2021/03/25 04:22:31;;;;;;;;;;;22.90;36.80;;;;;;1594866;72;621;-61
2021/03/25 04:24:34;;;;;;;;;;;22.80;36.60;;;;;;1595032;72;1944;-62
2021/03/25 04:26:38;;;;;;;;;;;22.80;36.60;;;;;;1605997;72;738;-65
2021/03/25 04:28:41;;;;;;;;;;;22.90;36.70;;;;;;1616161;72;1700;-61
2021/03/25 04:30:44;;;;;;;;;;;22.90;36.70;;;;;;1597705;72;1179;-63
2021/03/25 04:32:46;;;;;;;;;;;22.80;36.70;;;;;;1600046;72;1656;-62
2021/03/25 04:34:49;;;;;;;;;;;22.80;36.70;;;;;;1594730;73;770;-63
2021/03/25 04:36:50;;;;;;;;;;;22.90;36.80;;;;;;1605904;72;732;-61
2021/03/25 04:38:52;;;;;;;;;;;22.90;36.90;;;;;;1595563;73;814;-63
2021/03/25 04:40:55;;;;;;;;;;;22.90;36.80;;;;;;1604195;72;1148;-62
2021/03/25 04:42:56;;;;;;;;;;;22.90;36.70;;;;;;1594197;72;803;-63
2021/03/25 04:45:09;;;;;;;;;;;22.90;36.80;;;;;;1603884;72;1947;-62
2021/03/25 04:47:23;;;;;;;;;;;22.90;36.80;;;;;;1604320;73;771;-63
2021/03/25 04:49:32;;;;;;;;;;;22.90;36.80;;;;;;1604866;73;675;-60
2021/03/25 04:51:34;;;;;;;;;;;22.90;36.90;;;;;;1608270;72;764;-62
2021/03/25 04:53:36;;;;;;;;;;;22.90;36.90;;;;;;1608994;72;755;-61
2021/03/25 04:55:38;;;;;;;;;;;22.90;36.90;;;;;;1611983;72;756;-62
2021/03/25 04:57:44;;;;;;;;;;;22.90;36.80;;;;;;1597642;73;803;-63
2021/03/25 04:59:46;;;;;;;;;;;22.90;36.70;;;;;;1599935;72;1156;-62
2021/03/25 05:01:48;;;;;;;;;;;22.90;36.80;;;;;;1610203;72;768;-60
2021/03/25 05:03:50;;;;;;;;;;;23.00;36.80;;;;;;1601739;72;817;-62
2021/03/25 05:05:55;;;;;;;;;;;22.90;36.80;;;;;;1600084;73;1945;-61
2021/03/25 05:08:02;;;;;;;;;;;23.00;36.80;;;;;;1602652;73;766;-62
2021/03/25 05:10:04;;;;;;;;;;;23.00;36.80;;;;;;1604799;72;1158;-61
2021/03/25 05:12:07;;;;;;;;;;;23.00;36.80;;;;;;1608549;72;1190;-60
2021/03/25 05:14:15;;;;;;;;;;;23.00;36.80;;;;;;1606402;72;805;-62
2021/03/25 05:16:34;;;;;;;;;;;23.00;36.80;;;;;;1601158;72;699;-64
2021/03/25 05:18:36;;;;;;;;;;;23.00;36.80;;;;;;1609234;73;678;-64
2021/03/25 05:20:39;;;;;;;;;;;23.00;36.70;;;;;;1618109;73;1235;-62
2021/03/25 05:23:01;;;;;;;;;;;23.00;36.70;;;;;;1610236;72;1049;-62
2021/03/25 05:25:04;;;;;;;;;;;23.00;36.80;;;;;;1618285;72;1929;-62
2021/03/25 05:27:08;;;;;;;;;;;23.10;37.00;;;;;;1614438;73;765;-63
2021/03/25 05:29:09;;;;;;;;;;;23.00;36.60;;;;;;1610346;73;714;-63
2021/03/25 05:31:12;;;;;;;;;;;23.10;36.70;;;;;;1614468;72;1166;-62
2021/03/25 05:33:15;;;;;;;;;;;23.10;36.80;;;;;;1610336;73;798;-62
2021/03/25 05:35:21;;;;;;;;;;;23.00;36.60;;;;;;1598018;72;747;-63
2021/03/25 05:37:23;;;;;;;;;;;23.10;36.80;;;;;;1602642;72;784;-63
2021/03/25 05:39:26;;;;;;;;;;;23.10;36.80;;;;;;1603589;72;611;-63
2021/03/25 05:41:29;;;;;;;;;;;23.10;36.70;;;;;;1605214;72;1164;-63
2021/03/25 05:43:50;;;;;;;;;;;23.10;36.50;;;;;;1615079;73;1544;-65
2021/03/25 05:46:00;;;;;;;;;;;23.10;36.50;;;;;;1612701;72;1943;-63
2021/03/25 05:48:09;;;;;;;;;;;23.10;36.40;;;;;;1615907;73;1063;-63
2021/03/25 05:50:21;;;;;;;;;;;23.10;36.50;;;;;;1611928;73;1505;-63
2021/03/25 05:52:25;;;;;;;;;;;23.10;36.40;;;;;;1618602;73;727;-62
2021/03/25 05:54:37;;;;;;;;;;;23.10;36.50;;;;;;1617721;73;737;-62
2021/03/25 05:56:46;;;;;;;;;;;23.10;36.40;;;;;;1614382;72;731;-63
2021/03/25 05:58:49;;;;;;;;;;;23.10;36.20;;;;;;1615208;72;1104;-61
2021/03/25 06:00:53;;;;;;;;;;;23.20;36.30;;;;;;1625097;72;1177;-62
2021/03/25 06:02:55;;;;;;;;;;;23.10;36.30;;;;;;1615688;72;1691;-63
2021/03/25 06:04:57;;;;;;;;;;;23.10;36.30;;;;;;1617218;72;653;-63
2021/03/25 06:07:10;;;;;;;;;;;23.20;36.30;;;;;;1619175;73;1929;-62
2021/03/25 06:09:14;;;;;;;;;;;23.20;36.40;;;;;;1612977;73;1402;-61
2021/03/25 06:11:26;;;;;;;;;;;23.20;36.30;;;;;;1610626;73;1155;-60
2021/03/25 06:13:32;;;;;;;;;;;23.20;36.50;;;;;;1610718;73;1596;-61
2021/03/25 06:15:39;;;;;;;;;;;23.20;36.70;;;;;;1623639;72;1624;-63
2021/03/25 06:17:51;;;;;;;;;;;23.20;36.70;;;;;;1625516;72;1623;-63
2021/03/25 06:20:09;;;;;;;;;;;23.30;36.70;;;;;;1619038;72;1658;-62
2021/03/25 06:22:29;;;;;;;;;;;23.30;36.70;;;;;;1593757;73;767;-64
2021/03/25 06:24:36;;;;;;;;;;;23.20;36.50;;;;;;1594255;73;861;-63
2021/03/25 06:26:45;;;;;;;;;;;23.20;36.50;;;;;;1602797;72;1953;-62
2021/03/25 06:28:47;;;;;;;;;;;23.20;36.60;;;;;;1614443;72;732;-61
2021/03/25 06:31:07;;;;;;;;;;;23.30;36.60;;;;;;1607592;72;1084;-61
2021/03/25 06:33:11;;;;;;;;;;;23.30;36.70;;;;;;1614706;73;775;-65
2021/03/25 06:35:14;;;;;;;;;;;23.30;36.80;;;;;;1621558;73;797;-66
2021/03/25 06:37:20;;;;;;;;;;;23.30;36.30;;;;;;1615711;72;1331;-66
2021/03/25 06:39:30;;;;;;;;;;;23.20;35.70;;;;;;1613731;72;645;-66
2021/03/25 06:41:36;;;;;;;;;;;23.30;35.70;;;;;;1613721;72;733;-66
2021/03/25 06:43:39;;;;;;;;;;;23.30;35.50;;;;;;1609159;72;627;-67
2021/03/25 06:45:46;;;;;;;;;;;23.30;35.50;;;;;;1607719;73;1932;-64
2021/03/25 06:47:49;;;;;;;;;;;23.30;35.30;;;;;;1601359;73;986;-68
2021/03/25 06:49:53;;;;;;;;;;;23.30;35.40;;;;;;1611035;73;1182;-65
2021/03/25 06:51:57;;;;;;;;;;;23.30;35.30;;;;;;1610008;73;773;-66
2021/03/25 06:54:06;;;;;;;;;;;23.40;35.40;;;;;;1615077;73;759;-66
2021/03/25 06:56:09;;;;;;;;;;;23.30;35.30;;;;;;1620479;73;1753;-69
2021/03/25 06:58:15;;;;;;;;;;;23.40;35.40;;;;;;1630962;72;812;-65
2021/03/25 07:00:17;;;;;;;;;;;23.40;35.20;;;;;;1625086;72;1153;-63
2021/03/25 07:02:21;;;;;;;;;;;23.40;35.30;;;;;;1612071;72;745;-67
2021/03/25 07:04:26;;;;;;;;;;;23.40;35.20;;;;;;1614508;72;1448;-64
2021/03/25 07:06:29;;;;;;;;;;;23.40;35.40;;;;;;1616834;72;1947;-65
2021/03/25 07:08:32;;;;;;;;;;;23.50;35.50;;;;;;1616161;73;680;-66
2021/03/25 07:10:34;;;;;;;;;;;23.40;35.20;;;;;;1625194;72;1192;-65
2021/03/25 07:12:38;;;;;;;;;;;23.50;35.40;;;;;;1605594;73;668;-64
2021/03/25 07:14:43;;;;;;;;;;;23.50;35.00;;;;;;1615665;73;728;-64
2021/03/25 07:16:44;;;;;;;;;;;23.60;33.80;;;;;;1611947;72;681;-63
2021/03/25 07:19:00;;;;;;;;;;;23.70;32.60;;;;;;1618569;73;733;-61
2021/03/25 07:21:20;;;;;;;;;;;23.70;31.00;;;;;;1606523;73;1288;-65
2021/03/25 07:23:22;;;;;;;;;;;23.80;30.70;;;;;;1597091;72;747;-64
2021/03/25 07:25:24;;;;;;;;;;;23.80;29.90;;;;;;1615731;73;746;-65
2021/03/25 07:27:26;;;;;;;;;;;23.90;28.90;;;;;;1611547;73;816;-61
2021/03/25 07:29:30;;;;;;;;;;;23.90;28.90;;;;;;1603889;73;679;-63
2021/03/25 07:31:36;;;;;;;;;;;24.00;28.40;;;;;;1606423;72;785;-63
2021/03/25 07:33:41;;;;;;;;;;;24.00;27.90;;;;;;1624183;72;749;-65
2021/03/25 07:35:44;;;;;;;;;;;24.00;27.80;;;;;;1608876;73;757;-62
2021/03/25 07:37:45;;;;;;;;;;;24.00;27.30;;;;;;1613061;72;766;-63
2021/03/25 07:39:51;;;;;;;;;;;24.10;27.30;;;;;;1603087;72;1120;-64
2021/03/25 07:41:54;;;;;;;;;;;24.00;26.60;;;;;;1604216;73;746;-62
2021/03/25 07:44:10;;;;;;;;;;;24.10;26.20;;;;;;1605222;72;647;-65
2021/03/25 07:46:16;;;;;;;;;;;24.10;26.10;;;;;;1595219;73;1940;-64
2021/03/25 07:48:23;;;;;;;;;;;24.20;26.10;;;;;;1610386;72;1718;-62
2021/03/25 07:50:31;;;;;;;;;;;24.10;25.70;;;;;;1613800;72;1183;-63
2021/03/25 07:52:34;;;;;;;;;;;24.20;25.70;;;;;;1611788;72;652;-63
2021/03/25 07:54:37;;;;;;;;;;;24.20;26.20;;;;;;1618114;73;817;-63
2021/03/25 07:56:40;;;;;;;;;;;24.20;25.60;;;;;;1614260;73;800;-63
2021/03/25 07:58:43;;;;;;;;;;;24.30;25.70;;;;;;1583494;72;1206;-63
2021/03/25 08:00:45;;;;;;;;;;;24.30;26.20;;;;;;1606466;73;1143;-63
2021/03/25 08:02:47;;;;;;;;;;;24.40;25.40;;;;;;1614840;72;750;-62
2021/03/25 08:04:49;;;;;;;;;;;24.40;26.00;;;;;;1605767;73;748;-63
2021/03/25 08:06:52;;;;;;;;;;;24.40;26.00;;;;;;1601244;72;1983;-63
2021/03/25 08:08:59;;;;;;;;;;;24.40;26.00;;;;;;1599678;73;1633;-63
2021/03/25 08:11:08;;;;;;;;;;;24.50;26.00;;;;;;1619950;72;1167;-63
2021/03/25 08:13:17;;;;;;;;;;;24.40;25.90;;;;;;1610758;73;898;-63
2021/03/25 08:15:21;;;;;;;;;;;24.50;25.90;;;;;;1618666;72;753;-63
2021/03/25 08:17:27;;;;;;;;;;;24.40;25.60;;;;;;1606305;73;803;-63
2021/03/25 08:19:37;;;;;;;;;;;24.50;25.80;;;;;;1602363;73;959;-63
2021/03/25 08:21:39;;;;;;;;;;;24.50;25.50;;;;;;1615766;72;762;-62
2021/03/25 08:23:46;;;;;;;;;;;24.50;25.50;;;;;;1609741;72;820;-64
2021/03/25 08:25:49;;;;;;;;;;;24.40;25.70;;;;;;1618994;72;1923;-62
2021/03/25 08:27:53;;;;;;;;;;;24.40;25.20;;;;;;1603530;73;1172;-64
2021/03/25 08:30:11;;;;;;;;;;;24.40;25.40;;;;;;1603473;73;1152;-63
2021/03/25 08:32:15;;;;;;;;;;;24.40;25.50;;;;;;1600552;73;1122;-62
2021/03/25 08:34:21;;;;;;;;;;;24.40;25.20;;;;;;1596845;72;801;-62
2021/03/25 08:36:24;;;;;;;;;;;24.30;25.00;;;;;;1603177;72;735;-62
2021/03/25 08:38:43;;;;;;;;;;;24.30;25.00;;;;;;1615747;72;743;-63
2021/03/25 08:40:56;;;;;;;;;;;24.40;25.40;;;;;;1603808;72;1161;-62
2021/03/25 08:42:59;;;;;;;;;;;24.40;25.30;;;;;;1606468;72;768;-62
2021/03/25 08:45:06;;;;;;;;;;;24.40;25.20;;;;;;1603084;72;764;-63
2021/03/25 08:47:09;;;;;;;;;;;24.40;25.40;;;;;;1602694;72;1957;-63
2021/03/25 08:49:29;;;;;;;;;;;24.40;25.40;;;;;;1608985;72;720;-63
2021/03/25 08:51:38;;;;;;;;;;;24.50;25.10;;;;;;1603214;73;739;-62
2021/03/25 08:53:45;;;;;;;;;;;24.40;24.70;;;;;;1608518;73;1039;-62
2021/03/25 08:55:47;;;;;;;;;;;24.40;25.00;;;;;;1593791;73;664;-63
2021/03/25 08:57:50;;;;;;;;;;;24.40;24.20;;;;;;1595196;73;776;-64
2021/03/25 09:00:05;;;;;;;;;;;24.40;23.60;;;;;;1607424;72;1158;-62
2021/03/25 09:02:09;;;;;;;;;;;24.40;24.10;;;;;;1620436;72;765;-65
2021/03/25 09:04:11;;;;;;;;;;;24.30;23.90;;;;;;1605755;73;684;-64
2021/03/25 09:06:17;;;;;;;;;;;24.40;24.40;;;;;;1614090;73;1938;-63
2021/03/25 09:08:20;;;;;;;;;;;24.30;23.10;;;;;;1617941;73;659;-62
2021/03/25 09:10:40;;;;;;;;;;;24.30;23.20;;;;;;1608772;72;1212;-65
2021/03/25 09:12:41;;;;;;;;;;;24.40;24.10;;;;;;1616839;73;738;-62
2021/03/25 09:14:43;;;;;;;;;;;24.40;24.30;;;;;;1626022;72;768;-63
2021/03/25 09:16:45;;;;;;;;;;;24.40;24.30;;;;;;1614658;73;811;-64
2021/03/25 09:18:47;;;;;;;;;;;24.30;24.60;;;;;;1594416;72;755;-61
2021/03/25 09:20:53;;;;;;;;;;;24.40;24.70;;;;;;1595303;73;1222;-63
2021/03/25 09:23:01;;;;;;;;;;;24.30;24.80;;;;;;1599550;72;681;-64
2021/03/25 09:25:19;;;;;;;;;;;24.40;24.70;;;;;;1608850;73;647;-61
2021/03/25 09:27:23;;;;;;;;;;;24.30;24.20;;;;;;1620101;72;1936;-64
2021/03/25 09:29:25;;;;;;;;;;;24.40;24.30;;;;;;1611007;73;1545;-63
2021/03/25 09:31:27;;;;;;;;;;;24.30;24.10;;;;;;1615584;72;1086;-62
2021/03/25 09:33:45;;;;;;;;;;;24.30;23.80;;;;;;1611413;73;746;-62
2021/03/25 09:35:47;;;;;;;;;;;24.30;24.70;;;;;;1603876;73;797;-64
2021/03/25 09:37:52;;;;;;;;;;;24.30;24.30;;;;;;1610697;73;772;-64
2021/03/25 09:40:05;;;;;;;;;;;24.30;24.40;;;;;;1620482;72;1161;-59
2021/03/25 09:42:17;;;;;;;;;;;24.30;24.70;;;;;;1604256;73;964;-63
2021/03/25 09:44:23;;;;;;;;;;;24.30;25.10;;;;;;1612543;73;753;-63
2021/03/25 09:46:28;;;;;;;;;;;24.30;25.00;;;;;;1613436;72;1941;-63
2021/03/25 09:48:30;;;;;;;;;;;24.40;24.40;;;;;;1611143;72;636;-64
2021/03/25 09:50:32;;;;;;;;;;;24.20;24.40;;;;;;1608485;72;1198;-64
2021/03/25 09:52:36;;;;;;;;;;;24.20;24.60;;;;;;1613171;72;779;-62
2021/03/25 09:54:41;;;;;;;;;;;24.20;24.30;;;;;;1609116;72;725;-62
2021/03/25 09:56:43;;;;;;;;;;;24.20;24.60;;;;;;1605351;72;810;-64
2021/03/25 09:58:45;;;;;;;;;;;24.20;24.80;;;;;;1609930;72;768;-63
2021/03/25 10:00:51;;;;;;;;;;;24.20;25.20;;;;;;1607115;72;1115;-62
2021/03/25 10:02:54;;;;;;;;;;;24.20;24.70;;;;;;1606489;72;733;-65
2021/03/25 10:04:57;;;;;;;;;;;24.20;24.80;;;;;;1602926;73;740;-63
2021/03/25 10:07:07;;;;;;;;;;;24.10;24.50;;;;;;1607554;72;1923;-64
2021/03/25 10:09:09;;;;;;;;;;;24.10;24.80;;;;;;1610076;72;728;-64
2021/03/25 10:11:28;;;;;;;;;;;24.20;24.70;;;;;;1614003;72;1165;-62
2021/03/25 10:13:32;;;;;;;;;;;24.10;24.70;;;;;;1603441;72;725;-63
2021/03/25 10:15:42;;;;;;;;;;;24.10;24.90;;;;;;1603817;73;852;-63
2021/03/25 10:17:47;;;;;;;;;;;24.10;24.70;;;;;;1613380;72;684;-64
2021/03/25 10:19:49;;;;;;;;;;;24.10;25.00;;;;;;1603536;73;1163;-64
2021/03/25 10:21:55;;;;;;;;;;;24.10;25.00;;;;;;1605550;72;769;-63
2021/03/25 10:23:59;;;;;;;;;;;24.00;24.90;;;;;;1603716;72;764;-61
2021/03/25 10:26:14;;;;;;;;;;;24.00;24.80;;;;;;1608345;72;743;-65
2021/03/25 10:28:16;;;;;;;;;;;24.00;25.00;;;;;;1604882;72;1941;-62
2021/03/25 10:30:28;;;;;;;;;;;24.00;25.00;;;;;;1602597;72;1227;-62
2021/03/25 10:32:31;;;;;;;;;;;24.00;25.20;;;;;;1606207;72;1496;-63
2021/03/25 10:34:34;;;;;;;;;;;23.90;25.10;;;;;;1603789;72;759;-63
2021/03/25 10:36:56;;;;;;;;;;;23.90;25.30;;;;;;1597707;72;960;-62
2021/03/25 10:38:58;;;;;;;;;;;23.90;25.20;;;;;;1605015;72;716;-64
2021/03/25 10:41:01;;;;;;;;;;;23.90;25.50;;;;;;1601368;72;1137;-63
2021/03/25 10:43:06;;;;;;;;;;;23.90;26.00;;;;;;1604709;72;633;-63
2021/03/25 10:45:18;;;;;;;;;;;23.90;26.60;;;;;;1603816;72;663;-66
2021/03/25 10:47:21;;;;;;;;;;;23.90;24.40;;;;;;1617037;72;1954;-68
2021/03/25 10:49:24;;;;;;;;;;;23.60;21.50;;;;;;1620961;72;657;-63
2021/03/25 10:51:26;;;;;;;;;;;23.40;21.10;;;;;;1610921;72;1173;-64
2021/03/25 10:53:32;;;;;;;;;;;23.40;22.80;;;;;;1602789;73;816;-64
2021/03/25 10:55:39;;;;;;;;;;;23.40;24.00;;;;;;1611192;72;782;-63
2021/03/25 10:57:41;;;;;;;;;;;23.40;24.50;;;;;;1597615;73;687;-64
2021/03/25 10:59:47;;;;;;;;;;;23.40;24.80;;;;;;1602653;72;1169;-65
2021/03/25 11:01:53;;;;;;;;;;;23.50;25.20;;;;;;1615497;72;1709;-63
2021/03/25 11:03:55;;;;;;;;;;;23.50;25.40;;;;;;1615123;72;798;-64
2021/03/25 11:05:58;;;;;;;;;;;23.50;25.10;;;;;;1611444;73;752;-62
2021/03/25 11:08:01;;;;;;;;;;;23.50;25.20;;;;;;1617448;72;1927;-62
2021/03/25 11:10:03;;;;;;;;;;;23.40;25.00;;;;;;1603266;72;1126;-62
2021/03/25 11:12:12;;;;;;;;;;;23.40;24.20;;;;;;1599718;72;774;-62
2021/03/25 11:14:25;;;;;;;;;;;23.50;24.80;;;;;;1604365;73;796;-61
2021/03/25 11:16:27;;;;;;;;;;;23.50;25.10;;;;;;1603239;72;745;-63
2021/03/25 11:18:33;;;;;;;;;;;23.40;25.30;;;;;;1598965;72;756;-62
2021/03/25 11:20:35;;;;;;;;;;;23.40;24.90;;;;;;1605516;72;1228;-62
2021/03/25 11:22:37;;;;;;;;;;;23.40;24.50;;;;;;1602128;73;805;-62
2021/03/25 11:24:39;;;;;;;;;;;23.40;25.20;;;;;;1599818;72;756;-61
2021/03/25 11:26:41;;;;;;;;;;;23.40;25.20;;;;;;1599490;73;766;-62
2021/03/25 11:28:43;;;;;;;;;;;23.40;25.60;;;;;;1603832;72;1945;-62
2021/03/25 11:30:49;;;;;;;;;;;23.40;25.00;;;;;;1604264;72;1166;-62
2021/03/25 11:32:51;;;;;;;;;;;23.40;24.90;;;;;;1610975;73;817;-64
2021/03/25 11:34:53;;;;;;;;;;;23.30;24.20;;;;;;1599698;73;826;-62
2021/03/25 11:36:56;;;;;;;;;;;23.30;24.60;;;;;;1607148;72;816;-62
2021/03/25 11:39:00;;;;;;;;;;;23.30;24.90;;;;;;1605252;73;803;-61
2021/03/25 11:41:03;;;;;;;;;;;23.30;25.00;;;;;;1606193;72;1166;-62
2021/03/25 11:43:07;;;;;;;;;;;23.20;24.80;;;;;;1604174;72;632;-63
2021/03/25 11:45:26;;;;;;;;;;;23.20;24.70;;;;;;1599603;72;1183;-62
2021/03/25 11:47:45;;;;;;;;;;;23.20;24.20;;;;;;1598420;73;1938;-62
2021/03/25 11:49:47;;;;;;;;;;;23.20;24.30;;;;;;1618568;73;1161;-63
2021/03/25 11:52:01;;;;;;;;;;;23.20;24.70;;;;;;1620153;72;762;-65
2021/03/25 11:54:05;;;;;;;;;;;23.20;24.60;;;;;;1610581;73;751;-63
2021/03/25 11:56:07;;;;;;;;;;;23.10;25.40;;;;;;1611547;73;1060;-64
2021/03/25 11:58:16;;;;;;;;;;;23.20;25.50;;;;;;1608665;73;847;-63
2021/03/25 12:00:22;;;;;;;;;;;23.20;25.50;;;;;;1607701;73;1150;-63
2021/03/25 12:02:31;;;;;;;;;;;23.30;25.70;;;;;;1618468;72;739;-64
2021/03/25 12:04:33;;;;;;;;;;;23.40;25.80;;;;;;1618127;72;777;-64
2021/03/25 12:06:38;;;;;;;;;;;23.40;25.90;;;;;;1605578;72;800;-63
2021/03/25 12:08:40;;;;;;;;;;;23.40;26.00;;;;;;1612762;72;1953;-64
2021/03/25 12:10:42;;;;;;;;;;;23.50;26.20;;;;;;1611584;72;1170;-61
2021/03/25 12:12:44;;;;;;;;;;;23.50;26.30;;;;;;1609996;73;759;-64
2021/03/25 12:14:46;;;;;;;;;;;23.40;26.30;;;;;;1604962;72;681;-64
2021/03/25 12:17:00;;;;;;;;;;;23.40;26.40;;;;;;1605610;72;777;-64
2021/03/25 12:19:02;;;;;;;;;;;23.40;26.50;;;;;;1616252;72;786;-64
2021/03/25 12:21:06;;;;;;;;;;;23.40;26.70;;;;;;1617554;72;1136;-64
2021/03/25 12:23:09;;;;;;;;;;;23.40;26.70;;;;;;1622548;73;746;-65
2021/03/25 12:25:12;;;;;;;;;;;23.40;26.80;;;;;;1618924;72;1569;-63
2021/03/25 12:27:15;;;;;;;;;;;23.20;27.10;;;;;;1619141;72;1936;-64